Time;durP1;ratioP1;P1;durP2;ratioP2;P2;SDS_P1;SDS_P2;PMS_P1;PMS_P2;Temp;Humidity;BMP_temperature;BMP_pressure;BME280_temperature;BME280_humidity;BME280_pressure;Samples;Min_cycle;Max_cycle;Signal;HPM_P1;HPM_P2
2021/04/10 00:01:07;;;;;;;4.63;4.17;;;10.00;98.10;;;;;;5015504;28;20209;-81
2021/04/10 00:03:35;;;;;;;6.03;3.97;;;9.90;98.30;;;;;;5013795;28;20197;-81
2021/04/10 00:06:01;;;;;;;4.57;3.97;;;9.90;98.20;;;;;;5017101;28;20330;-82
2021/04/10 00:08:28;;;;;;;3.80;3.50;;;9.90;98.80;;;;;;5012818;28;20207;-80
2021/04/10 00:10:54;;;;;;;4.40;4.00;;;9.90;98.40;;;;;;5012436;28;20197;-80
2021/04/10 00:13:20;;;;;;;4.43;4.03;;;9.90;98.60;;;;;;5013360;28;20197;-80
2021/04/10 00:15:47;;;;;;;5.30;4.20;;;9.90;98.80;;;;;;5014448;28;20200;-81
2021/04/10 00:18:13;;;;;;;7.97;3.80;;;9.90;99.20;;;;;;5005310;28;20205;-79
2021/04/10 00:20:40;;;;;;;4.10;3.70;;;9.80;99.70;;;;;;5007982;28;20207;-80
2021/04/10 00:23:07;;;;;;;4.77;4.10;;;9.80;99.40;;;;;;5045067;23;20232;-78
2021/04/10 00:25:33;;;;;;;3.97;3.67;;;9.90;99.10;;;;;;5023035;28;20197;-78
2021/04/10 00:27:59;;;;;;;3.80;3.50;;;9.90;99.40;;;;;;5025627;28;20199;-77
2021/04/10 00:30:26;;;;;;;3.83;3.50;;;9.90;99.00;;;;;;5021273;28;20288;-78
2021/04/10 00:32:52;;;;;;;4.03;3.30;;;9.90;99.10;;;;;;5022140;28;20224;-78
2021/04/10 00:35:19;;;;;;;3.33;3.13;;;10.00;99.10;;;;;;5019188;28;20221;-78
2021/04/10 00:37:46;;;;;;;4.10;3.30;;;10.00;99.00;;;;;;5022716;28;20279;-78
2021/04/10 00:40:14;;;;;;;4.50;3.50;;;10.00;98.80;;;;;;5018170;28;20200;-78
2021/04/10 00:42:40;;;;;;;3.30;3.00;;;10.00;98.90;;;;;;5017090;28;20216;-78
2021/04/10 00:45:09;;;;;;;6.90;4.23;;;10.00;98.90;;;;;;5014748;28;20189;-78
2021/04/10 00:47:36;;;;;;;3.70;3.23;;;10.10;98.60;;;;;;5019362;28;20196;-78
2021/04/10 00:50:03;;;;;;;5.03;3.40;;;10.20;98.40;;;;;;5017764;28;20193;-78
2021/04/10 00:52:31;;;;;;;4.00;3.30;;;10.20;98.20;;;;;;5017680;28;20235;-78
2021/04/10 00:55:00;;;;;;;3.50;3.13;;;10.30;97.90;;;;;;5022256;28;20228;-78
2021/04/10 00:57:26;;;;;;;3.50;3.20;;;10.40;97.60;;;;;;5018432;28;20195;-78
2021/04/10 00:59:53;;;;;;;3.20;2.90;;;10.40;97.30;;;;;;5014241;28;20242;-78
2021/04/10 01:02:20;;;;;;;4.60;2.90;;;10.40;97.10;;;;;;5012846;28;20224;-78
2021/04/10 01:04:46;;;;;;;3.30;3.10;;;10.50;97.00;;;;;;5021532;28;20201;-76
2021/04/10 01:07:13;;;;;;;4.43;2.93;;;10.50;96.80;;;;;;5013950;28;20210;-77
2021/04/10 01:09:39;;;;;;;3.53;3.10;;;10.50;96.70;;;;;;5020363;28;20656;-78
2021/04/10 01:12:20;;;;;;;4.07;3.60;;;10.50;96.50;;;;;;5015907;28;20220;-77
2021/04/10 01:14:57;;;;;;;3.40;3.10;;;10.50;96.50;;;;;;5017641;28;20244;-78
2021/04/10 01:17:29;;;;;;;3.23;2.90;;;10.50;96.40;;;;;;5008932;28;20204;-78
2021/04/10 01:20:08;;;;;;;2.90;2.70;;;10.50;96.50;;;;;;5015902;28;20211;-77
2021/04/10 01:23:13;;;;;;;3.10;2.90;;;10.50;96.50;;;;;;5008028;28;20259;-78
2021/04/10 01:25:46;;;;;;;2.90;2.70;;;10.50;96.60;;;;;;5011486;28;20854;-78
2021/04/10 01:28:24;;;;;;;4.10;3.00;;;10.50;96.70;;;;;;5011677;28;20208;-78
2021/04/10 01:30:52;;;;;;;2.80;2.60;;;10.50;96.60;;;;;;5011383;28;20215;-79
2021/04/10 01:33:22;;;;;;;2.87;2.60;;;10.50;96.70;;;;;;5005519;28;20216;-78
2021/04/10 01:35:53;;;;;;;3.83;3.17;;;10.50;96.80;;;;;;5006435;28;20215;-78
2021/04/10 01:38:21;;;;;;;2.90;2.70;;;10.50;96.90;;;;;;5007880;28;20220;-78
2021/04/10 01:40:51;;;;;;;3.10;2.90;;;10.50;96.90;;;;;;5001904;28;20287;-78
2021/04/10 01:43:20;;;;;;;3.17;2.80;;;10.50;96.80;;;;;;5008290;28;20244;-78
2021/04/10 01:45:48;;;;;;;2.90;2.70;;;10.50;97.10;;;;;;5011384;28;20193;-78
2021/04/10 01:48:16;;;;;;;3.10;2.90;;;10.50;97.00;;;;;;5002912;28;20650;-78
2021/04/10 01:50:44;;;;;;;3.00;2.80;;;10.50;96.90;;;;;;5010687;28;20204;-78
2021/04/10 01:53:13;;;;;;;3.33;3.03;;;10.40;97.00;;;;;;5013838;28;20209;-78
2021/04/10 01:55:41;;;;;;;3.00;2.80;;;10.50;97.00;;;;;;5005891;28;20720;-77
2021/04/10 01:58:15;;;;;;;2.80;2.60;;;10.40;96.90;;;;;;5005899;28;20224;-77
2021/04/10 02:00:44;;;;;;;3.03;2.83;;;10.40;97.10;;;;;;5007096;28;20210;-78
2021/04/10 02:03:16;;;;;;;2.77;2.57;;;10.40;97.20;;;;;;5013962;28;20217;-78
2021/04/10 02:05:44;;;;;;;6.77;2.83;;;10.40;97.00;;;;;;5008920;28;20232;-78
2021/04/10 02:08:51;;;;;;;3.10;2.90;;;10.40;97.10;;;;;;5002803;28;20196;-78
2021/04/10 02:11:44;;;;;;;3.20;2.90;;;10.40;97.00;;;;;;5006867;28;20225;-78
2021/04/10 02:14:21;;;;;;;3.13;2.83;;;10.40;96.90;;;;;;5016057;28;20218;-78
2021/04/10 02:16:50;;;;;;;2.90;2.70;;;10.40;97.00;;;;;;5011662;28;20200;-78
2021/04/10 02:19:20;;;;;;;4.43;3.00;;;10.40;97.00;;;;;;5007859;28;20200;-78
2021/04/10 02:21:57;;;;;;;2.77;2.60;;;10.30;96.90;;;;;;5016741;28;20220;-78
2021/04/10 02:24:23;;;;;;;2.87;2.53;;;10.30;97.00;;;;;;5016072;28;20193;-77
2021/04/10 02:26:59;;;;;;;3.83;2.90;;;10.40;97.00;;;;;;5012589;28;20203;-78
2021/04/10 02:29:28;;;;;;;3.20;2.90;;;10.40;97.00;;;;;;5006380;28;20194;-78
2021/04/10 02:32:02;;;;;;;3.73;3.07;;;10.40;96.90;;;;;;5013152;28;20589;-78
2021/04/10 02:34:44;;;;;;;2.87;2.67;;;10.40;96.80;;;;;;5014332;28;20351;-78
2021/04/10 02:37:11;;;;;;;2.80;2.60;;;10.40;96.70;;;;;;5017184;28;20578;-77
2021/04/10 02:39:42;;;;;;;3.70;3.03;;;10.50;96.80;;;;;;5010871;28;20193;-78
2021/04/10 02:42:11;;;;;;;3.57;3.27;;;10.40;96.80;;;;;;5013363;28;20223;-78
2021/04/10 02:44:45;;;;;;;3.40;3.20;;;10.40;96.90;;;;;;5015999;28;20208;-77
2021/04/10 02:47:16;;;;;;;3.20;3.00;;;10.40;96.80;;;;;;5014806;28;20207;-78
2021/04/10 02:49:49;;;;;;;4.33;3.10;;;10.40;96.80;;;;;;5019973;28;20287;-79
2021/04/10 02:52:20;;;;;;;3.30;3.00;;;10.40;96.70;;;;;;5012281;28;20650;-79
2021/04/10 02:54:50;;;;;;;3.67;3.10;;;10.50;96.70;;;;;;5022706;28;20212;-78
2021/04/10 02:57:18;;;;;;;3.20;2.90;;;10.50;96.50;;;;;;5001155;28;20274;-78
2021/04/10 02:59:50;;;;;;;4.07;2.93;;;10.50;96.60;;;;;;5001899;28;20197;-77
2021/04/10 03:02:17;;;;;;;3.43;2.80;;;10.50;96.50;;;;;;5010862;28;20225;-77
2021/04/10 03:04:47;;;;;;;3.13;2.90;;;10.50;96.50;;;;;;5005957;28;20236;-77
2021/04/10 03:07:15;;;;;;;2.90;2.70;;;10.40;96.60;;;;;;5000414;28;20210;-76
2021/04/10 03:09:45;;;;;;;4.27;3.30;;;10.40;96.50;;;;;;5012836;28;20212;-77
2021/04/10 03:12:13;;;;;;;4.60;2.80;;;10.40;96.50;;;;;;5008846;28;20221;-77
2021/04/10 03:14:41;;;;;;;3.60;2.90;;;10.30;96.50;;;;;;5003817;28;20213;-76
2021/04/10 03:17:10;;;;;;;3.30;3.00;;;10.30;96.60;;;;;;5004507;28;20293;-77
2021/04/10 03:19:38;;;;;;;3.63;2.83;;;10.30;96.90;;;;;;5005320;28;20220;-77
2021/04/10 03:22:06;;;;;;;4.20;2.77;;;10.30;96.80;;;;;;5003602;28;20235;-78
2021/04/10 03:24:33;;;;;;;2.90;2.67;;;10.30;96.60;;;;;;5004921;28;20212;-77
2021/04/10 03:27:00;;;;;;;2.80;2.60;;;10.30;96.70;;;;;;5003260;28;20236;-78
2021/04/10 03:29:30;;;;;;;4.57;2.70;;;10.40;96.70;;;;;;5004210;28;20224;-77
2021/04/10 03:32:01;;;;;;;3.07;2.87;;;10.40;96.60;;;;;;5008072;28;20310;-78
2021/04/10 03:34:29;;;;;;;3.30;2.97;;;10.40;97.10;;;;;;5008743;28;20307;-76
2021/04/10 03:37:00;;;;;;;2.80;2.60;;;10.50;96.50;;;;;;5014857;28;20204;-77
2021/04/10 03:39:29;;;;;;;2.90;2.70;;;10.50;96.50;;;;;;5005880;28;20197;-78
2021/04/10 03:41:59;;;;;;;3.20;2.90;;;10.50;96.60;;;;;;5012556;28;20213;-77
2021/04/10 03:44:27;;;;;;;3.47;3.17;;;10.50;96.70;;;;;;5008073;28;20248;-78
2021/04/10 03:46:54;;;;;;;3.87;2.90;;;10.50;96.70;;;;;;5009271;28;20689;-78
2021/04/10 03:49:21;;;;;;;3.13;2.93;;;10.50;96.80;;;;;;5004714;28;20215;-77
2021/04/10 03:51:48;;;;;;;3.37;2.93;;;10.50;97.00;;;;;;5007183;28;20224;-77
2021/04/10 03:54:16;;;;;;;3.43;2.70;;;10.50;97.00;;;;;;5007693;28;20213;-77
2021/04/10 03:56:46;;;;;;;3.30;3.00;;;10.50;96.90;;;;;;5009040;28;20292;-78
2021/04/10 03:59:20;;;;;;;2.97;2.77;;;10.50;96.90;;;;;;5010673;28;20216;-77
2021/04/10 04:01:51;;;;;;;2.97;2.63;;;10.50;97.20;;;;;;5009666;28;20208;-77
2021/04/10 04:04:19;;;;;;;3.60;2.70;;;10.50;97.60;;;;;;5007248;28;20204;-77
2021/04/10 04:06:46;;;;;;;3.00;2.80;;;10.50;98.20;;;;;;5010942;28;20197;-78
2021/04/10 04:09:12;;;;;;;2.90;2.70;;;10.50;98.50;;;;;;5008726;28;20207;-78
2021/04/10 04:11:38;;;;;;;2.90;2.70;;;10.40;98.70;;;;;;4997700;28;20224;-77
2021/04/10 04:14:05;;;;;;;2.70;2.50;;;10.40;99.00;;;;;;5000930;28;20224;-77
2021/04/10 04:16:32;;;;;;;3.10;2.90;;;10.40;99.60;;;;;;4997557;28;20193;-77
2021/04/10 04:18:58;;;;;;;3.00;2.80;;;10.40;99.80;;;;;;5000821;28;20228;-77
2021/04/10 04:21:24;;;;;;;3.87;3.00;;;10.30;99.60;;;;;;5005274;28;20645;-78
2021/04/10 04:23:51;;;;;;;3.30;3.00;;;10.30;99.90;;;;;;5006905;28;20879;-77
2021/04/10 04:26:17;;;;;;;2.90;2.70;;;10.30;99.90;;;;;;5004987;28;20193;-79
2021/04/10 04:28:43;;;;;;;4.80;3.00;;;10.30;99.90;;;;;;5004962;28;20263;-79
2021/04/10 04:31:10;;;;;;;3.20;3.00;;;10.20;99.90;;;;;;5005395;28;20620;-77
2021/04/10 04:33:37;;;;;;;3.33;3.03;;;10.20;99.90;;;;;;5002233;28;20209;-76
2021/04/10 04:36:04;;;;;;;3.40;2.90;;;10.20;99.90;;;;;;5004863;28;20192;-76
2021/04/10 04:38:30;;;;;;;3.33;2.90;;;10.10;99.90;;;;;;5005265;28;20666;-76
2021/04/10 04:40:56;;;;;;;3.63;3.00;;;10.20;99.90;;;;;;4996577;28;20236;-78
2021/04/10 04:43:23;;;;;;;3.30;3.03;;;10.20;99.90;;;;;;4995531;28;20225;-77
2021/04/10 04:45:49;;;;;;;3.30;3.03;;;10.20;99.90;;;;;;4999898;28;20231;-76
2021/04/10 04:48:16;;;;;;;3.27;2.97;;;10.20;99.90;;;;;;5003004;28;20200;-76
2021/04/10 04:50:42;;;;;;;3.10;2.90;;;10.20;99.90;;;;;;5007072;28;20583;-78
2021/04/10 04:53:09;;;;;;;3.20;3.00;;;10.20;99.90;;;;;;5009657;28;20221;-76
2021/04/10 04:55:35;;;;;;;3.00;2.80;;;10.20;99.90;;;;;;5010358;28;20224;-77
2021/04/10 04:58:02;;;;;;;3.00;2.70;;;10.20;99.90;;;;;;5005153;28;20208;-77
2021/04/10 05:00:28;;;;;;;2.83;2.63;;;10.20;99.90;;;;;;5001990;28;20256;-76
2021/04/10 05:02:55;;;;;;;3.20;2.90;;;10.10;99.90;;;;;;4998582;28;20221;-78
2021/04/10 05:05:22;;;;;;;2.93;2.73;;;10.10;99.90;;;;;;5008486;28;20193;-77
2021/04/10 05:07:48;;;;;;;3.30;3.00;;;10.10;99.90;;;;;;5006173;28;20200;-76
2021/04/10 05:10:15;;;;;;;3.13;2.93;;;10.10;99.90;;;;;;5006180;28;20566;-78
2021/04/10 05:12:41;;;;;;;3.27;2.90;;;10.10;99.90;;;;;;5003525;28;20233;-77
2021/04/10 05:15:08;;;;;;;3.87;2.97;;;10.10;99.90;;;;;;5003922;28;20232;-76
2021/04/10 05:17:35;;;;;;;2.83;2.63;;;10.20;99.90;;;;;;4994542;28;20193;-77
2021/04/10 05:20:01;;;;;;;2.80;2.60;;;10.20;99.90;;;;;;5003053;28;20204;-76
2021/04/10 05:22:28;;;;;;;3.73;3.00;;;10.20;99.90;;;;;;5001863;28;20225;-77
2021/04/10 05:24:54;;;;;;;3.00;2.80;;;10.20;99.90;;;;;;4995912;28;20193;-76
2021/04/10 05:27:21;;;;;;;3.53;2.73;;;10.20;99.90;;;;;;5007450;28;20196;-75
2021/04/10 05:29:47;;;;;;;3.27;3.07;;;10.20;99.90;;;;;;5013736;28;20618;-75
2021/04/10 05:32:14;;;;;;;3.50;2.80;;;10.30;99.90;;;;;;5015253;28;20216;-76
2021/04/10 05:34:40;;;;;;;3.50;2.80;;;10.30;99.90;;;;;;5009902;28;20235;-76
2021/04/10 05:37:07;;;;;;;2.90;2.70;;;10.30;99.90;;;;;;5003287;28;20681;-76
2021/04/10 05:39:34;;;;;;;3.03;2.73;;;10.20;99.90;;;;;;5006420;28;20262;-76
2021/04/10 05:42:00;;;;;;;2.90;2.70;;;10.20;99.90;;;;;;5003932;28;20306;-76
2021/04/10 05:44:27;;;;;;;3.20;3.00;;;10.30;99.90;;;;;;5000984;28;20185;-75
2021/04/10 05:46:53;;;;;;;3.13;2.93;;;10.20;99.90;;;;;;5002380;28;20272;-76
2021/04/10 05:49:19;;;;;;;3.20;2.90;;;10.20;99.90;;;;;;5006088;28;20235;-76
2021/04/10 05:51:46;;;;;;;6.00;3.10;;;10.20;99.90;;;;;;5000004;28;20221;-76
2021/04/10 05:54:12;;;;;;;3.03;2.83;;;10.20;99.90;;;;;;5006946;28;20614;-80
2021/04/10 05:56:39;;;;;;;3.37;2.80;;;10.10;99.90;;;;;;5009693;28;20202;-75
2021/04/10 05:59:06;;;;;;;3.00;2.80;;;10.10;99.90;;;;;;5004503;28;20223;-76
2021/04/10 06:01:32;;;;;;;3.00;2.80;;;10.10;99.90;;;;;;5012086;28;20300;-75
2021/04/10 06:03:59;;;;;;;3.00;2.80;;;10.10;99.90;;;;;;5016129;28;20193;-75
2021/04/10 06:06:25;;;;;;;3.00;2.80;;;10.10;99.90;;;;;;5004156;28;20619;-77
2021/04/10 06:08:52;;;;;;;3.30;2.77;;;10.10;99.90;;;;;;5007113;28;20668;-76
2021/04/10 06:11:19;;;;;;;3.53;3.17;;;10.10;99.90;;;;;;5008949;28;20201;-76
2021/04/10 06:13:46;;;;;;;3.30;3.00;;;10.10;99.90;;;;;;5006791;28;20208;-76
2021/04/10 06:16:13;;;;;;;2.73;2.53;;;10.10;99.90;;;;;;5006877;28;20200;-75
2021/04/10 06:18:39;;;;;;;3.63;3.30;;;10.00;99.90;;;;;;5005399;28;20650;-75
2021/04/10 06:21:06;;;;;;;3.50;3.20;;;10.00;99.90;;;;;;5011148;28;20195;-75
2021/04/10 06:23:33;;;;;;;3.00;2.80;;;9.90;99.90;;;;;;5033239;23;20228;-77
2021/04/10 06:25:59;;;;;;;4.13;3.13;;;9.80;99.90;;;;;;5039588;28;20191;-80
2021/04/10 06:28:26;;;;;;;3.20;3.00;;;9.70;99.90;;;;;;5039805;28;20202;-78
2021/04/10 06:30:53;;;;;;;3.60;3.30;;;9.70;99.90;;;;;;5039976;28;20199;-79
2021/04/10 06:33:21;;;;;;;3.50;3.20;;;9.60;99.90;;;;;;5037720;28;20223;-79
2021/04/10 06:35:48;;;;;;;3.90;3.50;;;9.60;99.90;;;;;;5005258;28;20228;-79
2021/04/10 06:38:14;;;;;;;3.97;3.53;;;9.60;99.90;;;;;;5021259;28;20609;-78
2021/04/10 06:40:41;;;;;;;3.90;3.60;;;9.60;99.90;;;;;;5026830;28;20195;-78
2021/04/10 06:43:07;;;;;;;3.70;3.40;;;9.60;99.90;;;;;;5023544;28;20193;-78
2021/04/10 06:45:34;;;;;;;3.53;3.27;;;9.60;99.90;;;;;;5024686;28;20632;-79
2021/04/10 06:48:03;;;;;;;3.40;3.10;;;9.70;99.90;;;;;;5005186;28;20201;-79
2021/04/10 06:50:30;;;;;;;3.33;3.03;;;9.70;99.90;;;;;;5029917;28;20203;-79
2021/04/10 06:52:57;;;;;;;3.63;3.33;;;9.80;99.90;;;;;;5026865;28;20201;-79
2021/04/10 06:55:25;;;;;;;3.47;3.17;;;9.80;99.90;;;;;;5014833;28;20647;-79
2021/04/10 06:57:58;;;;;;;3.97;3.60;;;9.80;99.90;;;;;;5037060;28;20192;-78
2021/04/10 07:00:26;;;;;;;5.07;3.57;;;9.80;99.90;;;;;;5034794;28;20192;-79
2021/04/10 07:02:56;;;;;;;3.67;3.37;;;9.80;99.90;;;;;;5008100;28;20593;-79
2021/04/10 07:05:23;;;;;;;4.60;2.87;;;9.80;99.90;;;;;;5015476;28;20598;-78
2021/04/10 07:07:50;;;;;;;2.80;2.33;;;9.70;99.90;;;;;;5006976;28;20204;-78
2021/04/10 07:10:17;;;;;;;3.50;2.60;;;9.80;99.90;;;;;;5007693;28;20203;-78
2021/04/10 07:12:44;;;;;;;3.67;2.60;;;9.80;99.90;;;;;;5023494;28;20204;-77
2021/04/10 07:15:13;;;;;;;2.30;2.10;;;9.70;99.90;;;;;;5009565;28;20227;-78
2021/04/10 07:17:39;;;;;;;4.03;2.30;;;9.80;99.90;;;;;;5022288;28;20216;-79
2021/04/10 07:20:24;;;;;;;3.53;2.30;;;9.80;99.90;;;;;;5028953;28;20196;-78
2021/04/10 07:22:57;;;;;;;4.30;2.83;;;9.80;99.90;;;;;;5005003;28;20191;-77
2021/04/10 07:25:24;;;;;;;4.07;2.40;;;9.80;99.90;;;;;;5027746;28;20688;-77
2021/04/10 07:27:51;;;;;;;4.03;2.47;;;9.80;99.90;;;;;;5031260;28;20565;-78
2021/04/10 07:30:18;;;;;;;5.07;2.40;;;9.80;99.90;;;;;;5016180;28;20192;-80
2021/04/10 07:32:45;;;;;;;3.03;2.37;;;9.80;99.90;;;;;;5012462;28;20193;-77
2021/04/10 07:35:13;;;;;;;4.00;2.77;;;9.80;99.90;;;;;;5028780;28;20224;-77
2021/04/10 07:37:42;;;;;;;3.90;2.30;;;9.80;99.90;;;;;;5028537;28;20574;-78
2021/04/10 07:40:10;;;;;;;2.50;2.30;;;9.80;99.90;;;;;;5029034;28;20200;-79
2021/04/10 07:42:38;;;;;;;2.60;2.13;;;9.90;99.90;;;;;;5033951;28;20261;-80
2021/04/10 07:45:07;;;;;;;4.70;2.57;;;9.90;99.90;;;;;;5012863;28;20220;-79
2021/04/10 07:47:38;;;;;;;4.23;2.80;;;10.00;99.90;;;;;;5015410;28;20245;-78
2021/04/10 07:50:20;;;;;;;3.27;2.57;;;10.10;99.90;;;;;;5017105;28;20203;-79
2021/04/10 07:52:48;;;;;;;4.37;3.20;;;10.10;99.90;;;;;;5008589;28;20263;-78
2021/04/10 07:55:44;;;;;;;3.70;3.40;;;10.20;99.90;;;;;;5028366;28;20615;-79
2021/04/10 07:58:21;;;;;;;4.60;3.23;;;10.30;99.90;;;;;;4972697;28;20682;-78
2021/04/10 08:00:48;;;;;;;4.83;3.37;;;10.30;99.90;;;;;;5020997;28;20216;-78
2021/04/10 08:03:25;;;;;;;3.77;3.47;;;10.30;99.90;;;;;;5012210;28;20212;-79
2021/04/10 08:05:51;;;;;;;4.20;3.70;;;10.30;99.90;;;;;;5013157;28;20191;-78
2021/04/10 08:08:21;;;;;;;3.60;3.30;;;10.40;99.90;;;;;;5026320;28;20207;-79
2021/04/10 08:10:47;;;;;;;4.47;3.47;;;10.30;99.90;;;;;;5029743;28;20204;-78
2021/04/10 08:13:13;;;;;;;3.77;3.30;;;10.40;99.90;;;;;;5020888;28;20193;-78
2021/04/10 08:15:40;;;;;;;5.37;3.77;;;10.40;99.90;;;;;;5007581;28;20235;-78
2021/04/10 08:18:21;;;;;;;4.07;3.60;;;10.50;99.90;;;;;;5003009;28;20212;-79
2021/04/10 08:20:51;;;;;;;4.00;3.70;;;10.50;99.90;;;;;;5025370;28;20204;-80
2021/04/10 08:23:21;;;;;;;3.80;3.43;;;10.50;99.90;;;;;;5021811;28;20220;-79
2021/04/10 08:25:47;;;;;;;4.10;3.70;;;10.60;99.90;;;;;;5011713;28;20200;-78
2021/04/10 08:28:14;;;;;;;4.30;3.90;;;10.70;99.90;;;;;;5030112;28;20742;-80
2021/04/10 08:30:41;;;;;;;3.50;3.20;;;10.70;99.90;;;;;;5007162;28;20580;-80
2021/04/10 08:33:07;;;;;;;3.30;3.00;;;10.70;99.90;;;;;;5009037;28;20731;-77
2021/04/10 08:35:34;;;;;;;4.17;3.03;;;10.70;99.90;;;;;;5007342;28;20244;-78
2021/04/10 08:38:02;;;;;;;3.20;2.77;;;10.80;99.90;;;;;;5016163;28;20597;-77
2021/04/10 08:40:31;;;;;;;3.97;3.57;;;10.90;99.90;;;;;;5029363;28;20193;-79
2021/04/10 08:42:59;;;;;;;3.40;3.10;;;11.00;99.90;;;;;;5006766;28;20205;-78
2021/04/10 08:45:29;;;;;;;3.47;2.73;;;11.00;99.90;;;;;;5025012;28;20198;-77
2021/04/10 08:48:00;;;;;;;4.17;3.30;;;11.00;99.90;;;;;;5017659;28;20537;-79
2021/04/10 08:50:27;;;;;;;3.57;3.27;;;11.10;99.90;;;;;;5003356;28;20205;-79
2021/04/10 08:52:54;;;;;;;4.10;3.10;;;11.20;99.90;;;;;;5012383;28;20204;-77
2021/04/10 08:55:20;;;;;;;3.67;3.00;;;11.40;99.90;;;;;;5006581;28;20231;-78
2021/04/10 08:57:48;;;;;;;3.23;2.73;;;11.50;99.90;;;;;;5022508;28;20205;-78
2021/04/10 09:00:23;;;;;;;3.43;3.10;;;11.80;99.90;;;;;;5001936;28;20207;-78
2021/04/10 09:02:50;;;;;;;4.10;3.30;;;12.00;99.90;;;;;;5012961;28;20203;-78
2021/04/10 09:05:17;;;;;;;3.90;3.30;;;12.30;99.90;;;;;;5028552;28;20212;-78
2021/04/10 09:08:05;;;;;;;3.20;2.90;;;12.40;99.90;;;;;;5009903;28;20213;-78
2021/04/10 09:10:49;;;;;;;3.63;2.90;;;12.70;99.90;;;;;;5014085;28;20207;-78
2021/04/10 09:13:44;;;;;;;3.10;2.80;;;13.00;99.90;;;;;;5005143;28;20611;-78
2021/04/10 09:16:29;;;;;;;3.87;2.80;;;13.10;99.90;;;;;;5008116;28;20237;-78
2021/04/10 09:18:57;;;;;;;3.40;3.10;;;13.30;99.90;;;;;;5029284;28;20254;-77
2021/04/10 09:21:26;;;;;;;4.90;3.30;;;13.30;99.90;;;;;;5019247;28;20677;-78
2021/04/10 09:23:52;;;;;;;3.53;2.60;;;13.40;99.90;;;;;;5022294;28;20226;-79
2021/04/10 09:26:20;;;;;;;2.63;2.43;;;13.50;99.90;;;;;;5032217;28;20222;-78
2021/04/10 09:29:15;;;;;;;3.90;3.50;;;13.60;99.90;;;;;;5026008;28;20704;-79
2021/04/10 09:31:44;;;;;;;3.37;3.07;;;13.70;99.90;;;;;;5008888;28;20225;-78
2021/04/10 09:34:45;;;;;;;3.80;3.30;;;13.60;99.90;;;;;;5011904;28;20227;-79
2021/04/10 09:37:12;;;;;;;3.10;2.90;;;13.60;99.90;;;;;;5007310;28;20206;-79
2021/04/10 09:39:51;;;;;;;3.40;3.10;;;13.60;99.90;;;;;;5036985;28;20252;-77
2021/04/10 09:42:44;;;;;;;3.90;2.90;;;13.70;99.90;;;;;;5012407;28;20196;-79
2021/04/10 09:45:13;;;;;;;3.33;2.93;;;13.90;99.90;;;;;;5031267;28;20596;-78
2021/04/10 09:48:15;;;;;;;4.33;3.43;;;14.10;99.90;;;;;;5033272;28;20211;-78
2021/04/10 09:50:42;;;;;;;3.90;3.17;;;14.10;99.90;;;;;;5011765;28;20224;-77
2021/04/10 09:53:12;;;;;;;4.17;3.53;;;14.20;99.90;;;;;;5027809;28;20668;-78
2021/04/10 09:55:40;;;;;;;3.90;3.00;;;14.20;99.90;;;;;;5027668;28;20216;-80
2021/04/10 09:58:08;;;;;;;4.53;3.57;;;14.30;99.90;;;;;;5018610;28;20269;-79
2021/04/10 10:00:38;;;;;;;4.53;3.50;;;14.30;99.90;;;;;;5036771;28;20209;-79
2021/04/10 10:03:07;;;;;;;3.70;3.40;;;14.30;99.90;;;;;;5028606;28;20204;-79
2021/04/10 10:05:36;;;;;;;3.83;3.40;;;14.40;99.90;;;;;;5013209;28;20196;-79
2021/04/10 10:08:04;;;;;;;3.83;3.50;;;14.40;99.90;;;;;;5007102;28;20207;-78
2021/04/10 10:10:31;;;;;;;3.83;3.53;;;14.30;99.90;;;;;;5030068;28;20208;-77
2021/04/10 10:13:02;;;;;;;3.83;3.43;;;14.30;99.90;;;;;;5023578;28;20246;-78
2021/04/10 10:15:29;;;;;;;4.70;3.67;;;14.40;99.90;;;;;;5013938;28;20222;-78
2021/04/10 10:17:56;;;;;;;3.83;3.00;;;14.30;99.90;;;;;;5005748;28;20596;-78
2021/04/10 10:20:22;;;;;;;3.17;2.87;;;14.20;99.90;;;;;;5010114;28;20207;-79
2021/04/10 10:22:49;;;;;;;3.47;3.17;;;14.30;99.90;;;;;;5034210;28;20188;-79
2021/04/10 10:25:15;;;;;;;2.93;2.73;;;14.20;99.90;;;;;;5025718;28;20282;-78
2021/04/10 10:27:45;;;;;;;3.30;3.10;;;14.30;99.90;;;;;;5008436;28;20200;-77
2021/04/10 10:30:17;;;;;;;3.90;3.07;;;14.30;99.90;;;;;;5012208;28;20208;-78
2021/04/10 10:32:45;;;;;;;4.33;3.20;;;14.40;99.90;;;;;;5007089;28;20200;-78
2021/04/10 10:35:13;;;;;;;4.57;3.40;;;14.50;99.90;;;;;;5029512;28;20651;-78
2021/04/10 10:37:40;;;;;;;4.03;3.20;;;14.40;99.90;;;;;;5011116;28;20630;-79
2021/04/10 10:40:07;;;;;;;3.33;3.03;;;14.50;99.90;;;;;;5008631;28;20196;-79
2021/04/10 10:42:34;;;;;;;3.70;3.37;;;14.50;99.90;;;;;;5012953;28;20234;-78
2021/04/10 10:45:00;;;;;;;3.97;3.40;;;14.50;99.90;;;;;;5006494;28;20228;-80
2021/04/10 10:47:26;;;;;;;3.53;3.23;;;14.50;99.90;;;;;;5012404;28;20196;-80
2021/04/10 10:49:53;;;;;;;3.50;3.20;;;14.50;99.90;;;;;;5013422;28;20203;-79
2021/04/10 10:52:20;;;;;;;3.37;3.07;;;14.70;99.90;;;;;;5025269;28;20636;-78
2021/04/10 10:54:48;;;;;;;3.17;2.87;;;14.90;99.90;;;;;;5038351;28;20221;-77
2021/04/10 10:57:18;;;;;;;3.33;2.97;;;15.10;99.90;;;;;;5033975;28;20200;-78
2021/04/10 10:59:45;;;;;;;3.17;2.97;;;15.30;99.90;;;;;;5025697;28;20220;-77
2021/04/10 11:02:18;;;;;;;3.03;2.83;;;15.30;99.90;;;;;;5012458;28;20199;-76
2021/04/10 11:04:47;;;;;;;2.70;2.50;;;15.50;99.90;;;;;;5024451;28;20220;-80
2021/04/10 11:07:14;;;;;;;2.50;2.40;;;15.60;99.90;;;;;;5026120;28;20557;-78
2021/04/10 11:09:43;;;;;;;2.80;2.70;;;15.80;99.90;;;;;;5011597;28;20243;-79
2021/04/10 11:12:13;;;;;;;1.93;1.80;;;15.90;99.90;;;;;;5025595;28;20739;-77
2021/04/10 11:14:42;;;;;;;2.83;2.63;;;16.10;99.90;;;;;;5028263;28;20220;-79
2021/04/10 11:17:09;;;;;;;3.40;2.80;;;16.20;99.90;;;;;;5007514;28;20299;-78
2021/04/10 11:19:36;;;;;;;2.90;2.70;;;16.40;99.90;;;;;;5028668;28;20568;-79
2021/04/10 11:22:05;;;;;;;3.27;3.00;;;16.70;99.90;;;;;;5030717;28;20193;-79
2021/04/10 11:24:35;;;;;;;3.60;3.30;;;16.90;99.90;;;;;;5033998;28;20271;-79
2021/04/10 11:27:12;;;;;;;3.50;3.20;;;17.10;99.90;;;;;;5035736;28;21011;-79
2021/04/10 11:29:47;;;;;;;3.67;3.47;;;17.30;99.90;;;;;;5034431;28;20676;-77
2021/04/10 11:32:36;;;;;;;3.47;3.27;;;17.50;99.90;;;;;;4999320;28;20255;-78
2021/04/10 11:35:06;;;;;;;3.87;3.47;;;17.60;99.90;;;;;;5030498;28;20241;-77
2021/04/10 11:37:42;;;;;;;3.50;3.20;;;17.70;99.80;;;;;;5020254;28;20202;-77
2021/04/10 11:40:22;;;;;;;2.40;2.30;;;18.00;99.50;;;;;;5007524;28;20203;-79
2021/04/10 11:42:50;;;;;;;3.57;3.03;;;18.30;98.20;;;;;;5009839;28;20215;-78
2021/04/10 11:45:30;;;;;;;2.67;2.50;;;18.50;96.10;;;;;;5030777;28;20590;-77
2021/04/10 11:48:11;;;;;;;3.10;2.90;;;18.70;95.80;;;;;;5030518;28;20205;-77
2021/04/10 11:50:50;;;;;;;3.33;3.10;;;19.00;95.30;;;;;;5030955;28;20654;-78
2021/04/10 11:53:27;;;;;;;2.60;2.40;;;19.10;95.70;;;;;;5006367;28;20677;-77
2021/04/10 11:55:54;;;;;;;3.07;2.80;;;19.10;94.80;;;;;;5014005;28;20222;-83
2021/04/10 11:58:29;;;;;;;2.57;2.37;;;18.90;93.70;;;;;;5024354;28;20196;-78
2021/04/10 12:01:13;;;;;;;2.43;2.33;;;18.60;93.90;;;;;;5025076;28;20203;-79
2021/04/10 12:03:53;;;;;;;2.70;2.50;;;18.60;93.90;;;;;;5023142;28;20220;-78
2021/04/10 12:06:31;;;;;;;2.87;2.60;;;18.30;94.30;;;;;;5007985;28;20220;-79
2021/04/10 12:09:01;;;;;;;2.53;2.43;;;18.10;93.50;;;;;;5021863;28;20566;-80
2021/04/10 12:11:27;;;;;;;2.67;2.47;;;18.00;93.90;;;;;;5008823;28;20200;-78
2021/04/10 12:13:54;;;;;;;2.60;2.40;;;17.90;92.90;;;;;;5003521;28;20219;-79
2021/04/10 12:16:21;;;;;;;3.00;2.80;;;18.00;93.60;;;;;;5021528;28;20203;-78
2021/04/10 12:18:47;;;;;;;2.97;2.50;;;18.00;92.50;;;;;;5023378;28;20207;-80
2021/04/10 12:21:13;;;;;;;2.27;2.17;;;17.80;91.90;;;;;;5010485;28;20206;-80
2021/04/10 12:23:40;;;;;;;2.30;2.20;;;17.70;92.30;;;;;;5048778;23;20240;-79
2021/04/10 12:26:07;;;;;;;2.37;2.27;;;17.70;91.40;;;;;;4998837;28;20250;-78
2021/04/10 12:28:33;;;;;;;2.33;2.13;;;17.70;90.80;;;;;;4992954;28;20206;-80
2021/04/10 12:31:02;;;;;;;2.27;2.10;;;17.70;91.70;;;;;;4992861;28;20815;-81
2021/04/10 12:33:29;;;;;;;2.23;2.13;;;17.80;88.70;;;;;;4993748;28;20231;-78
2021/04/10 12:35:57;;;;;;;2.20;2.07;;;17.70;90.50;;;;;;4987798;28;20204;-80
2021/04/10 12:38:24;;;;;;;2.33;2.10;;;17.70;90.10;;;;;;4986368;28;20213;-79
2021/04/10 12:40:50;;;;;;;2.93;1.90;;;17.70;90.10;;;;;;4979469;28;20206;-80
2021/04/10 12:43:17;;;;;;;2.10;2.00;;;17.70;86.40;;;;;;4978629;28;20203;-81
2021/04/10 12:45:43;;;;;;;1.90;1.80;;;17.80;85.70;;;;;;4981691;28;20231;-81
2021/04/10 12:48:10;;;;;;;2.30;2.10;;;17.80;82.80;;;;;;4980694;28;20199;-80
2021/04/10 12:50:37;;;;;;;2.23;2.13;;;17.90;83.40;;;;;;4980326;28;20263;-80
2021/04/10 12:53:03;;;;;;;3.27;2.20;;;17.80;81.60;;;;;;4979037;28;20668;-80
2021/04/10 12:55:29;;;;;;;2.47;2.30;;;17.80;83.60;;;;;;4979140;28;20214;-80
2021/04/10 12:57:56;;;;;;;2.00;1.90;;;17.40;82.10;;;;;;4980733;28;20188;-80
2021/04/10 13:00:23;;;;;;;1.90;1.80;;;17.20;82.70;;;;;;4984319;28;20193;-80